Orihuela, Spain
Current Conditions -  °F | °C
As of 5:00 PM on Friday 21 Nov 2014 (Local Time) from LELC Reporting Station
Scattered Clouds Scattered Clouds  
Wind Chill: 66°   Ceiling: Unl
Heat Index: 66°   Visibility: 6mi
Dew Point: 61°   Wind: 9mph
Humidity: 83%   Direction: 40°NE
Pressure: 30.03"   Gusts: NA
Location:  38.08°N, 0.94°W
Report Text: LELC 211600Z 04008KT 010V070 9999 SCT011 SCT015 19/16 Q1017 NOSIG
Loading
Personal Weather Stations






























Interactive Weather Map New forecast layout! Learn more

10-Day Weather Forecast

Advertisements
Track Severe Weather on mobile